Aviation WX

[Source: ADDS]
METAR
KFKL 230114Z AUTO 26007KT 10SM OVC028 M02/M05 A3020 RMK AO2 SNE01 P0000 FZRANO =
TAF
KFKL 222332Z 2300/2324 31004KT P6SM VCSH OVC035 TEMPO 2300/2302 BKN028 FM230600 32004KT P6SM SCT040 FM231600 23007KT P6SM BKN250 =